Aviation Digital Data Service (ADDS)

Output produced by METARs form (1718 UTC 03 June 2020)
found at http://www.aviationweather.gov/metar/data/
 
Forecast for: ZPPP (KUNMING/WUJIABA , CN)
Text: TAF ZPPP 031503Z 0318/0418 23004MPS 9999 SCT026 TX27/0408Z TN14/0323Z
Forecast period: 1800 UTC 03 June 2020 to 1800 UTC 04 June 2020
Forecast type: FROM: standard forecast or significant change
Winds: from the SW (230 degrees) at 9 MPH (8 knots; 4.1 m/s)
Visibility: 6 or more miles 10+ km)
Ceiling: at least 12,000 feet AGL
Clouds: scattered clouds at 2600 feet AGL
Weather: no significant weather forecast for this period